createdAt,value
2022-11-09T00:00:51.066Z,8.50
2022-11-09T00:03:20.799Z,5.50
2022-11-09T00:05:56.496Z,5.00
2022-11-09T00:08:24.570Z,5.20
2022-11-09T00:10:52.606Z,4.33
2022-11-09T00:13:21.133Z,4.60
2022-11-09T00:15:49.398Z,7.47
2022-11-09T00:18:17.419Z,6.50
2022-11-09T00:20:48.286Z,6.27
2022-11-09T00:23:17.462Z,4.97
2022-11-09T00:25:45.895Z,4.57
2022-11-09T00:28:14.115Z,4.83
2022-11-09T00:30:42.649Z,4.80
2022-11-09T00:33:12.404Z,4.70
2022-11-09T00:35:40.756Z,4.43
2022-11-09T00:38:10.390Z,3.57
2022-11-09T00:40:38.539Z,3.60
2022-11-09T00:43:06.557Z,5.20
2022-11-09T00:45:34.562Z,5.50
2022-11-09T00:48:03.501Z,5.20
2022-11-09T00:50:31.719Z,3.27
2022-11-09T00:52:59.764Z,3.20
2022-11-09T00:55:29.273Z,4.17
2022-11-09T00:57:57.250Z,3.70
2022-11-09T01:00:25.846Z,3.53
2022-11-09T01:02:54.150Z,3.83
2022-11-09T01:05:22.298Z,6.13
2022-11-09T01:07:50.505Z,6.87
2022-11-09T01:10:18.644Z,4.23
2022-11-09T01:12:48.165Z,5.00
2022-11-09T01:15:16.295Z,3.23
2022-11-09T01:17:44.320Z,3.30
2022-11-09T01:20:13.306Z,3.73
2022-11-09T01:22:41.422Z,3.20
2022-11-09T01:25:10.263Z,3.10
2022-11-09T01:27:38.427Z,2.53
2022-11-09T01:30:09.405Z,2.77
2022-11-09T01:32:37.533Z,1.80
2022-11-09T01:35:06.245Z,2.87
2022-11-09T01:37:34.543Z,2.30
2022-11-09T01:40:02.751Z,2.30
2022-11-09T01:42:31.189Z,2.10
2022-11-09T01:45:29.422Z,2.40
2022-11-09T01:48:04.089Z,2.10
2022-11-09T01:50:39.683Z,2.43
2022-11-09T01:53:11.608Z,2.13
2022-11-09T01:55:39.898Z,1.83
2022-11-09T01:58:10.239Z,9.57
2022-11-09T02:00:42.937Z,12.30
2022-11-09T02:03:15.730Z,7.13
2022-11-09T02:05:44.448Z,3.37
2022-11-09T02:08:14.802Z,1.63
2022-11-09T02:10:47.527Z,2.00
2022-11-09T02:13:18.382Z,2.10
2022-11-09T02:15:49.428Z,1.90
2022-11-09T02:18:17.949Z,1.80
2022-11-09T02:20:49.111Z,1.97
2022-11-09T02:23:18.023Z,3.37
2022-11-09T02:25:48.297Z,2.50
2022-11-09T02:28:17.809Z,3.17
2022-11-09T02:30:48.684Z,1.90
2022-11-09T02:33:17.001Z,2.00
2022-11-09T02:35:45.151Z,2.03
2022-11-09T02:38:15.233Z,2.60
2022-11-09T02:40:46.969Z,1.07
2022-11-09T02:43:16.410Z,1.57
2022-11-09T02:45:44.954Z,1.50
2022-11-09T02:48:12.979Z,2.20
2022-11-09T02:50:41.127Z,2.80
2022-11-09T02:53:09.173Z,2.53
2022-11-09T02:55:38.589Z,2.60
2022-11-09T02:58:06.748Z,2.60
2022-11-09T03:00:34.797Z,2.57
2022-11-09T03:03:03.056Z,1.90
2022-11-09T03:05:31.058Z,2.23
2022-11-09T03:08:02.417Z,1.93
2022-11-09T03:10:30.567Z,1.73
2022-11-09T03:12:59.968Z,2.00
2022-11-09T03:15:28.200Z,1.23
2022-11-09T03:17:56.303Z,2.20
2022-11-09T03:20:24.479Z,3.07
2022-11-09T03:22:52.573Z,3.50
2022-11-09T03:25:20.586Z,2.03
2022-11-09T03:27:48.601Z,1.70
2022-11-09T03:30:19.227Z,1.27
2022-11-09T03:32:50.556Z,2.10
2022-11-09T03:35:19.349Z,1.87
2022-11-09T03:37:47.570Z,3.83
2022-11-09T03:40:15.693Z,6.93
2022-11-09T03:42:46.062Z,6.20
2022-11-09T03:45:14.671Z,6.53
2022-11-09T03:47:44.251Z,4.30
2022-11-09T03:50:12.916Z,5.20
2022-11-09T03:52:41.041Z,3.20
2022-11-09T03:55:09.830Z,2.57
2022-11-09T03:57:37.922Z,1.77
2022-11-09T04:00:07.630Z,1.50
2022-11-09T04:02:35.921Z,2.10
2022-11-09T04:05:06.017Z,3.10
2022-11-09T04:07:34.104Z,4.80
2022-11-09T04:10:02.209Z,7.40
2022-11-09T04:12:30.199Z,4.90
2022-11-09T04:14:58.212Z,1.90
2022-11-09T04:17:26.280Z,1.63
2022-11-09T04:19:54.265Z,1.50
2022-11-09T04:22:23.692Z,1.60
2022-11-09T04:24:51.771Z,1.57
2022-11-09T04:27:19.795Z,2.00
2022-11-09T04:29:47.822Z,1.10
2022-11-09T04:32:15.883Z,1.70
2022-11-09T04:34:44.028Z,1.30
2022-11-09T04:37:12.079Z,1.63
2022-11-09T04:39:41.569Z,1.17
2022-11-09T04:42:09.687Z,1.63
2022-11-09T04:44:37.770Z,1.47
2022-11-09T04:47:05.853Z,1.30
2022-11-09T04:49:33.843Z,1.43
2022-11-09T04:52:01.901Z,2.03
2022-11-09T04:54:30.166Z,1.67
2022-11-09T04:56:59.720Z,1.80
2022-11-09T04:59:27.805Z,1.40
2022-11-09T05:01:55.872Z,1.87
2022-11-09T05:04:23.936Z,1.50
2022-11-09T05:06:52.102Z,1.83
2022-11-09T05:09:20.239Z,1.80
2022-11-09T05:11:48.233Z,2.37
2022-11-09T05:14:17.904Z,2.30
2022-11-09T05:16:45.997Z,2.20
2022-11-09T05:19:14.105Z,1.30
2022-11-09T05:21:42.174Z,1.70
2022-11-09T05:24:09.368Z,1.40
2022-11-09T05:26:39.109Z,1.83
2022-11-09T05:29:08.824Z,1.53
2022-11-09T05:31:39.387Z,1.10
2022-11-09T05:34:08.456Z,1.63
2022-11-09T05:36:36.508Z,1.40
2022-11-09T05:39:04.847Z,2.10
2022-11-09T05:41:33.027Z,2.53
2022-11-09T05:44:01.459Z,2.10
2022-11-09T05:46:31.358Z,1.43
2022-11-09T05:49:00.728Z,1.97
2022-11-09T05:51:28.842Z,1.60
2022-11-09T05:53:57.037Z,1.40
2022-11-09T05:56:25.241Z,1.47
2022-11-09T05:58:53.513Z,1.30
2022-11-09T06:01:21.541Z,1.27
2022-11-09T06:03:50.230Z,1.03
2022-11-09T06:06:21.000Z,1.40
2022-11-09T06:08:50.236Z,1.40
2022-11-09T06:11:23.992Z,0.90
2022-11-09T06:13:54.295Z,1.00
2022-11-09T06:16:23.412Z,1.40
2022-11-09T06:18:51.414Z,1.90
2022-11-09T06:21:21.187Z,1.70
2022-11-09T06:23:49.377Z,1.20
2022-11-09T06:26:17.581Z,1.63
2022-11-09T06:28:45.680Z,1.97
2022-11-09T06:31:16.415Z,1.37
2022-11-09T06:33:44.454Z,1.20
2022-11-09T06:36:12.993Z,1.10
2022-11-09T06:38:42.635Z,1.10
2022-11-09T06:41:11.928Z,1.00
2022-11-09T06:43:40.013Z,1.30
2022-11-09T06:46:08.353Z,3.30
2022-11-09T06:48:36.366Z,2.63
2022-11-09T06:51:05.695Z,2.23
2022-11-09T06:53:34.938Z,1.60
2022-11-09T06:56:05.812Z,1.70
2022-11-09T06:58:34.292Z,2.10
2022-11-09T07:01:08.277Z,1.80
2022-11-09T07:03:36.979Z,1.67
2022-11-09T07:06:07.209Z,1.30
2022-11-09T07:08:35.520Z,2.03
2022-11-09T07:11:09.898Z,2.20
2022-11-09T07:13:38.017Z,1.90
2022-11-09T07:16:06.620Z,2.70
2022-11-09T07:18:35.179Z,2.77
2022-11-09T07:21:08.851Z,2.73
2022-11-09T07:23:41.271Z,2.40
2022-11-09T07:26:11.076Z,3.10
2022-11-09T07:28:39.133Z,2.13
2022-11-09T07:31:07.292Z,2.40
2022-11-09T07:33:36.043Z,2.00
2022-11-09T07:36:05.646Z,2.30
2022-11-09T07:38:33.923Z,1.93
2022-11-09T07:41:02.431Z,2.10
2022-11-09T07:43:32.465Z,1.60
2022-11-09T07:46:00.471Z,2.40
2022-11-09T07:48:28.499Z,1.67
2022-11-09T07:50:57.343Z,2.20
2022-11-09T07:53:25.320Z,1.97
2022-11-09T07:55:58.613Z,1.70
2022-11-09T07:58:31.412Z,1.60
2022-11-09T08:01:00.026Z,1.50
2022-11-09T08:03:28.627Z,1.33
2022-11-09T08:05:58.066Z,1.57
2022-11-09T08:08:26.218Z,2.17
2022-11-09T08:10:54.556Z,2.10
2022-11-09T08:13:23.039Z,1.93
2022-11-09T08:15:52.796Z,2.70
2022-11-09T08:18:22.564Z,4.47
2022-11-09T08:20:51.133Z,4.90
2022-11-09T08:23:21.084Z,4.40
2022-11-09T08:25:49.987Z,3.50
2022-11-09T08:28:18.335Z,4.20
2022-11-09T08:30:47.008Z,2.90
2022-11-09T08:33:16.368Z,2.57
2022-11-09T08:35:47.952Z,3.40
2022-11-09T08:38:18.807Z,4.80
2022-11-09T08:40:47.354Z,4.03
2022-11-09T08:43:15.662Z,5.50
2022-11-09T08:45:44.739Z,4.20
2022-11-09T08:48:13.624Z,5.23
2022-11-09T08:50:43.373Z,4.83
2022-11-09T08:53:11.414Z,5.03
2022-11-09T08:55:39.381Z,5.20
2022-11-09T08:58:07.513Z,5.70
2022-11-09T09:00:35.534Z,5.10
2022-11-09T09:03:06.399Z,6.23
2022-11-09T09:05:38.764Z,9.23
2022-11-09T09:08:11.794Z,7.93
2022-11-09T09:10:40.569Z,6.60
2022-11-09T09:13:08.908Z,6.00
2022-11-09T09:15:36.852Z,6.70
2022-11-09T09:18:05.938Z,5.73
2022-11-09T09:20:34.080Z,6.13
2022-11-09T09:23:02.737Z,6.63
2022-11-09T09:25:32.579Z,5.07
2022-11-09T09:28:00.646Z,5.30
2022-11-09T09:30:28.776Z,7.10
2022-11-09T09:33:00.295Z,5.67
2022-11-09T09:35:28.770Z,5.10
2022-11-09T09:37:58.248Z,5.60
2022-11-09T09:40:31.515Z,4.97
2022-11-09T09:43:01.510Z,5.73
2022-11-09T09:45:30.922Z,5.10
2022-11-09T09:48:02.145Z,4.20
2022-11-09T09:50:32.788Z,5.20
2022-11-09T09:53:23.267Z,6.37
2022-11-09T09:55:55.852Z,5.30
2022-11-09T09:58:28.728Z,4.90
2022-11-09T10:01:00.037Z,4.93
2022-11-09T10:03:28.788Z,6.20
2022-11-09T10:06:03.357Z,6.30
2022-11-09T10:08:41.850Z,8.00
2022-11-09T10:11:18.346Z,8.73
2022-11-09T10:14:08.515Z,6.77
2022-11-09T10:16:40.518Z,6.27
2022-11-09T10:19:36.420Z,7.07
2022-11-09T10:22:09.593Z,7.70
2022-11-09T10:25:12.918Z,7.07
2022-11-09T10:27:36.702Z,5.70
2022-11-09T10:30:15.039Z,6.80
2022-11-09T10:32:43.764Z,7.10
2022-11-09T10:35:18.460Z,8.00
2022-11-09T10:37:48.997Z,13.57
2022-11-09T10:40:21.476Z,14.63
2022-11-09T10:42:51.008Z,15.03
2022-11-09T10:45:30.714Z,13.77
2022-11-09T10:48:00.300Z,15.10
2022-11-09T10:50:32.696Z,10.77
2022-11-09T10:53:14.010Z,10.80
2022-11-09T10:55:51.852Z,8.03
2022-11-09T10:58:38.590Z,8.80
2022-11-09T11:01:16.337Z,7.03
2022-11-09T11:03:46.298Z,6.40
2022-11-09T11:06:18.689Z,6.20
2022-11-09T11:08:47.673Z,7.30
2022-11-09T11:11:33.301Z,6.40
2022-11-09T11:14:19.999Z,6.90
2022-11-09T11:16:53.094Z,6.80
2022-11-09T11:19:34.729Z,7.10
2022-11-09T11:22:23.147Z,7.00
2022-11-09T11:24:56.995Z,7.90
2022-11-09T11:27:30.052Z,7.53
2022-11-09T11:30:08.599Z,7.80
2022-11-09T11:32:38.090Z,8.27
2022-11-09T11:35:07.360Z,9.13
2022-11-09T11:37:47.195Z,10.10
2022-11-09T11:40:20.803Z,10.23
2022-11-09T11:43:03.439Z,8.20
2022-11-09T11:45:41.214Z,8.20
2022-11-09T11:48:27.331Z,7.67
2022-11-09T11:50:59.880Z,7.63
2022-11-09T11:53:43.563Z,7.60
2022-11-09T11:56:27.668Z,6.30
2022-11-09T11:59:31.039Z,6.87
2022-11-09T12:02:14.267Z,7.20
2022-11-09T12:04:58.777Z,6.53
2022-11-09T12:07:32.709Z,7.00
2022-11-09T12:10:21.383Z,7.27
2022-11-09T12:12:56.800Z,6.57
2022-11-09T12:15:33.479Z,7.17
2022-11-09T12:18:16.718Z,8.40
2022-11-09T12:20:53.035Z,8.67
2022-11-09T12:23:40.563Z,8.73
2022-11-09T12:26:22.874Z,7.90
2022-11-09T12:29:06.418Z,7.90
2022-11-09T12:31:45.861Z,8.40
2022-11-09T12:34:19.668Z,8.07
2022-11-09T12:36:55.632Z,9.20
2022-11-09T12:39:29.244Z,8.30
2022-11-09T12:42:01.103Z,8.10
2022-11-09T12:44:31.363Z,8.63
2022-11-09T12:47:03.510Z,7.67
2022-11-09T12:49:38.028Z,7.67
2022-11-09T12:52:09.887Z,7.10
2022-11-09T12:54:41.121Z,8.10
2022-11-09T12:57:11.534Z,9.20
2022-11-09T12:59:48.491Z,9.83
2022-11-09T13:02:25.773Z,9.67
2022-11-09T13:04:59.942Z,9.33
2022-11-09T13:07:40.461Z,9.00
2022-11-09T13:10:25.877Z,9.70
2022-11-09T13:13:03.603Z,11.70
2022-11-09T13:15:32.964Z,10.03
2022-11-09T13:18:06.721Z,10.17
2022-11-09T13:20:55.234Z,9.07
2022-11-09T13:24:01.482Z,8.43
2022-11-09T13:26:58.471Z,8.60
2022-11-09T13:29:28.205Z,8.23
2022-11-09T13:32:31.769Z,8.40
2022-11-09T13:35:00.856Z,8.67
2022-11-09T13:37:52.980Z,9.47
2022-11-09T13:40:49.665Z,7.90
2022-11-09T13:43:20.956Z,8.50
2022-11-09T13:45:50.845Z,9.63
2022-11-09T13:48:37.980Z,9.20
2022-11-09T13:51:07.654Z,8.73
2022-11-09T13:53:58.713Z,8.40
2022-11-09T13:56:35.240Z,8.73
2022-11-09T13:59:09.926Z,8.87
2022-11-09T14:01:47.899Z,9.10
2022-11-09T14:04:25.526Z,8.87
2022-11-09T14:07:03.448Z,9.27
2022-11-09T14:09:38.986Z,8.57
2022-11-09T14:12:22.417Z,9.57
2022-11-09T14:15:02.257Z,10.20
2022-11-09T14:17:34.374Z,11.40
2022-11-09T14:20:12.058Z,11.20
2022-11-09T14:22:41.530Z,10.73
2022-11-09T14:25:15.834Z,10.50
2022-11-09T14:27:57.220Z,11.90
2022-11-09T14:30:27.283Z,11.20
2022-11-09T14:32:56.623Z,10.90
2022-11-09T14:35:27.228Z,10.93
2022-11-09T14:37:56.249Z,9.67
2022-11-09T14:40:26.197Z,11.07
2022-11-09T14:42:57.840Z,10.80
2022-11-09T14:45:25.919Z,10.60
2022-11-09T14:47:55.730Z,11.37
2022-11-09T14:50:25.753Z,10.60
2022-11-09T14:52:55.170Z,11.13
2022-11-09T14:55:24.606Z,10.90
2022-11-09T14:57:55.625Z,10.77
2022-11-09T15:00:30.476Z,11.03
2022-11-09T15:02:59.716Z,11.93
2022-11-09T15:05:33.234Z,12.20
2022-11-09T15:08:02.443Z,13.03
2022-11-09T15:10:32.629Z,12.97
2022-11-09T15:13:04.249Z,13.90
2022-11-09T15:15:34.093Z,16.37
2022-11-09T15:18:02.615Z,16.60
2022-11-09T15:20:33.983Z,14.90
2022-11-09T15:23:03.803Z,14.33
2022-11-09T15:25:34.316Z,12.00
2022-11-09T15:28:20.527Z,13.60
2022-11-09T15:30:50.871Z,13.37
2022-11-09T15:33:27.809Z,25.67
2022-11-09T15:36:04.381Z,35.13
2022-11-09T15:38:35.716Z,19.10
2022-11-09T15:41:04.637Z,15.77
2022-11-09T15:43:34.123Z,14.17
2022-11-09T15:46:02.427Z,12.80
2022-11-09T15:48:30.608Z,13.03
2022-11-09T15:50:58.892Z,12.27
2022-11-09T15:53:27.934Z,12.83
2022-11-09T15:55:56.064Z,12.37
2022-11-09T15:58:24.469Z,13.43
2022-11-09T16:00:54.394Z,15.63
2022-11-09T16:03:23.092Z,15.07
2022-11-09T16:05:52.236Z,15.20
2022-11-09T16:08:21.707Z,14.17
2022-11-09T16:10:49.994Z,13.13
2022-11-09T16:13:18.058Z,12.90
2022-11-09T16:15:46.044Z,12.73
2022-11-09T16:18:17.407Z,13.70
2022-11-09T16:20:47.495Z,12.80
2022-11-09T16:23:15.518Z,13.33
2022-11-09T16:25:44.853Z,15.50
2022-11-09T16:28:16.344Z,14.47
2022-11-09T16:30:46.852Z,12.50
2022-11-09T16:33:16.694Z,12.03
2022-11-09T16:35:44.748Z,12.30
2022-11-09T16:38:12.826Z,12.47
2022-11-09T16:40:40.955Z,12.30
2022-11-09T16:43:09.034Z,14.57
2022-11-09T16:45:37.087Z,17.83
2022-11-09T16:48:06.247Z,14.80
2022-11-09T16:50:35.748Z,18.10
2022-11-09T16:53:03.861Z,17.17
2022-11-09T16:55:32.148Z,19.00
2022-11-09T16:58:00.758Z,16.73
2022-11-09T17:00:48.689Z,14.77
2022-11-09T17:03:17.158Z,12.50
2022-11-09T17:05:47.365Z,12.57
2022-11-09T17:08:16.428Z,15.60
2022-11-09T17:10:46.411Z,14.83
2022-11-09T17:13:15.421Z,17.00
2022-11-09T17:15:43.704Z,15.97
2022-11-09T17:18:13.010Z,13.93
2022-11-09T17:20:44.529Z,10.10
2022-11-09T17:23:14.582Z,10.60
2022-11-09T17:25:42.595Z,7.40
2022-11-09T17:28:10.696Z,7.77
2022-11-09T17:30:41.924Z,9.50
2022-11-09T17:33:10.008Z,7.57
2022-11-09T17:35:38.123Z,8.57
2022-11-09T17:38:06.333Z,8.43
2022-11-09T17:40:35.950Z,8.07
2022-11-09T17:43:04.287Z,7.83
2022-11-09T17:45:32.430Z,8.60
2022-11-09T17:48:01.829Z,8.27
2022-11-09T17:50:29.927Z,8.40
2022-11-09T17:52:58.059Z,7.47
2022-11-09T17:55:26.648Z,6.63
2022-11-09T17:57:56.437Z,7.60
2022-11-09T18:00:24.595Z,7.00
2022-11-09T18:02:55.747Z,7.20
2022-11-09T18:05:23.906Z,6.17
2022-11-09T18:07:51.965Z,7.13
2022-11-09T18:10:20.359Z,5.97
2022-11-09T18:12:48.674Z,5.87
2022-11-09T18:15:18.455Z,5.50
2022-11-09T18:17:49.098Z,5.97
2022-11-09T18:20:18.784Z,7.27
2022-11-09T18:22:46.924Z,5.80
2022-11-09T18:25:14.971Z,6.90
2022-11-09T18:27:43.813Z,6.00
2022-11-09T18:30:12.933Z,6.37
2022-11-09T18:32:42.411Z,6.00
2022-11-09T18:35:11.166Z,6.23
2022-11-09T18:37:39.633Z,8.00
2022-11-09T18:40:08.703Z,5.80
2022-11-09T18:42:37.018Z,7.17
2022-11-09T18:45:05.727Z,6.00
2022-11-09T18:47:33.761Z,6.93
2022-11-09T18:50:03.746Z,6.13
2022-11-09T18:52:33.931Z,6.10
2022-11-09T18:55:02.836Z,5.50
2022-11-09T18:57:31.147Z,6.60
2022-11-09T18:59:59.448Z,6.17
2022-11-09T19:02:27.592Z,5.40
2022-11-09T19:04:55.942Z,5.90
2022-11-09T19:07:25.358Z,5.63
2022-11-09T19:09:56.524Z,5.67
2022-11-09T19:12:25.319Z,4.80
2022-11-09T19:14:53.444Z,5.33
2022-11-09T19:17:21.527Z,6.17
2022-11-09T19:19:49.767Z,5.13
2022-11-09T19:22:19.342Z,7.70
2022-11-09T19:24:48.776Z,5.83
2022-11-09T19:27:17.185Z,9.70
2022-11-09T19:29:47.148Z,8.30
2022-11-09T19:32:15.331Z,8.13
2022-11-09T19:34:43.705Z,8.20
2022-11-09T19:37:11.726Z,6.70
2022-11-09T19:39:43.050Z,6.30
2022-11-09T19:42:13.366Z,6.20
2022-11-09T19:44:41.457Z,7.00
2022-11-09T19:47:09.596Z,7.00
2022-11-09T19:49:39.469Z,6.50
2022-11-09T19:52:07.606Z,6.80
2022-11-09T19:54:35.782Z,4.97
2022-11-09T19:57:03.867Z,6.33
2022-11-09T19:59:33.546Z,5.37
2022-11-09T20:02:01.744Z,5.30
2022-11-09T20:04:30.109Z,6.33
2022-11-09T20:06:58.375Z,11.17
2022-11-09T20:09:26.669Z,10.10
2022-11-09T20:12:12.579Z,8.03
2022-11-09T20:14:48.131Z,9.07
2022-11-09T20:17:16.165Z,7.63
2022-11-09T20:19:44.438Z,5.30
2022-11-09T20:22:12.450Z,5.70
2022-11-09T20:24:40.480Z,5.70
2022-11-09T20:27:08.941Z,5.50
2022-11-09T20:29:37.022Z,5.03
2022-11-09T20:32:10.545Z,4.50
2022-11-09T20:34:42.511Z,4.50
2022-11-09T20:37:12.838Z,7.90
2022-11-09T20:39:42.210Z,5.10
2022-11-09T20:42:10.310Z,4.90
2022-11-09T20:44:38.585Z,4.50
2022-11-09T20:47:08.407Z,6.53
2022-11-09T20:49:36.690Z,4.47
2022-11-09T20:52:05.656Z,4.50
2022-11-09T20:54:33.731Z,11.87
2022-11-09T20:57:01.796Z,5.93
2022-11-09T20:59:30.169Z,5.30
2022-11-09T21:01:58.259Z,6.13
2022-11-09T21:04:28.041Z,5.03
2022-11-09T21:06:56.183Z,6.90
2022-11-09T21:09:24.350Z,5.43
2022-11-09T21:12:11.165Z,17.17
2022-11-09T21:14:42.176Z,12.07
2022-11-09T21:17:10.196Z,5.40
2022-11-09T21:19:40.316Z,4.40
2022-11-09T21:22:11.984Z,4.37
2022-11-09T21:24:57.201Z,5.40
2022-11-09T21:27:47.739Z,5.40
2022-11-09T21:30:17.008Z,6.00
2022-11-09T21:32:45.509Z,6.40
2022-11-09T21:35:15.276Z,5.03
2022-11-09T21:37:43.431Z,5.30
2022-11-09T21:40:12.103Z,5.07
2022-11-09T21:42:40.132Z,7.60
2022-11-09T21:45:09.283Z,5.60
2022-11-09T21:47:37.451Z,5.67
2022-11-09T21:50:11.102Z,6.13
2022-11-09T21:52:45.009Z,5.87
2022-11-09T21:55:12.984Z,6.93
2022-11-09T21:57:41.154Z,6.30
2022-11-09T22:00:11.331Z,6.87
2022-11-09T22:02:39.318Z,6.50
2022-11-09T22:05:08.154Z,7.00
2022-11-09T22:07:38.303Z,6.40
2022-11-09T22:10:11.087Z,5.00
2022-11-09T22:12:57.256Z,5.10
2022-11-09T22:15:57.307Z,4.80
2022-11-09T22:18:47.195Z,5.13
2022-11-09T22:21:17.633Z,4.97
2022-11-09T22:23:46.231Z,4.20
2022-11-09T22:26:16.182Z,5.53
2022-11-09T22:28:45.676Z,4.90
2022-11-09T22:31:14.814Z,4.10
2022-11-09T22:33:42.868Z,3.87
2022-11-09T22:36:12.755Z,4.33
2022-11-09T22:38:43.899Z,4.20
2022-11-09T22:41:13.094Z,4.90
2022-11-09T22:43:43.590Z,4.67
2022-11-09T22:46:13.213Z,4.13
2022-11-09T22:48:42.351Z,3.83
2022-11-09T22:51:11.025Z,4.00
2022-11-09T22:53:39.317Z,4.70
2022-11-09T22:56:08.386Z,4.63
2022-11-09T22:58:38.771Z,4.40
2022-11-09T23:01:12.560Z,4.60
2022-11-09T23:03:40.941Z,4.63
2022-11-09T23:06:10.267Z,5.20
2022-11-09T23:08:38.687Z,5.00
2022-11-09T23:11:07.172Z,5.30
2022-11-09T23:13:35.359Z,4.57
2022-11-09T23:16:05.193Z,4.80
2022-11-09T23:18:55.445Z,4.27
2022-11-09T23:21:26.027Z,4.27
2022-11-09T23:23:55.136Z,5.47
2022-11-09T23:26:24.711Z,5.10
2022-11-09T23:28:52.806Z,4.93
2022-11-09T23:31:24.240Z,4.73
2022-11-09T23:33:54.690Z,4.40
2022-11-09T23:36:24.899Z,4.90
2022-11-09T23:38:56.348Z,3.90
2022-11-09T23:41:24.383Z,3.60
2022-11-09T23:43:55.899Z,6.10
2022-11-09T23:46:26.930Z,6.03
2022-11-09T23:48:56.451Z,5.67
2022-11-09T23:51:24.526Z,5.27
2022-11-09T23:53:52.580Z,4.13
2022-11-09T23:56:21.740Z,4.77
2022-11-09T23:58:51.634Z,4.67
